sensor_id;sensor_type;location;lat;lon;timestamp;P1;durP1;ratioP1;P2;durP2;ratioP2
76157;SDS011;64907;51.574;6.502;2023-07-29T00:01:40;4.37;;;3.83;;
76157;SDS011;64907;51.574;6.502;2023-07-29T00:04:06;4.15;;;3.85;;
76157;SDS011;64907;51.574;6.502;2023-07-29T00:06:31;4.30;;;3.40;;
76157;SDS011;64907;51.574;6.502;2023-07-29T00:08:56;3.70;;;3.60;;
76157;SDS011;64907;51.574;6.502;2023-07-29T00:11:21;4.10;;;3.90;;
76157;SDS011;64907;51.574;6.502;2023-07-29T00:13:46;4.17;;;3.87;;
76157;SDS011;64907;51.574;6.502;2023-07-29T00:16:13;4.18;;;3.97;;
76157;SDS011;64907;51.574;6.502;2023-07-29T00:18:40;4.68;;;4.10;;
76157;SDS011;64907;51.574;6.502;2023-07-29T00:21:05;3.92;;;3.72;;
76157;SDS011;64907;51.574;6.502;2023-07-29T00:23:30;4.27;;;3.97;;
76157;SDS011;64907;51.574;6.502;2023-07-29T00:25:56;5.00;;;4.10;;
76157;SDS011;64907;51.574;6.502;2023-07-29T00:28:21;3.88;;;3.72;;
76157;SDS011;64907;51.574;6.502;2023-07-29T00:30:46;4.40;;;4.13;;
76157;SDS011;64907;51.574;6.502;2023-07-29T00:33:11;4.00;;;3.77;;
76157;SDS011;64907;51.574;6.502;2023-07-29T00:38:18;4.80;;;4.50;;
76157;SDS011;64907;51.574;6.502;2023-07-29T00:40:44;4.50;;;4.07;;
76157;SDS011;64907;51.574;6.502;2023-07-29T00:43:09;4.13;;;3.83;;
76157;SDS011;64907;51.574;6.502;2023-07-29T00:48:03;4.07;;;3.88;;
76157;SDS011;64907;51.574;6.502;2023-07-29T00:50:29;4.60;;;4.40;;
76157;SDS011;64907;51.574;6.502;2023-07-29T00:52:55;5.13;;;4.65;;
76157;SDS011;64907;51.574;6.502;2023-07-29T00:55:21;4.95;;;4.50;;
76157;SDS011;64907;51.574;6.502;2023-07-29T01:00:19;4.53;;;4.18;;
76157;SDS011;64907;51.574;6.502;2023-07-29T01:02:44;5.45;;;5.05;;
76157;SDS011;64907;51.574;6.502;2023-07-29T01:05:11;4.68;;;4.45;;
76157;SDS011;64907;51.574;6.502;2023-07-29T01:07:39;4.85;;;4.65;;
76157;SDS011;64907;51.574;6.502;2023-07-29T01:10:16;4.93;;;4.65;;
76157;SDS011;64907;51.574;6.502;2023-07-29T01:18:05;4.65;;;4.45;;
76157;SDS011;64907;51.574;6.502;2023-07-29T01:20:32;4.57;;;4.38;;
76157;SDS011;64907;51.574;6.502;2023-07-29T01:23:04;5.20;;;4.80;;
76157;SDS011;64907;51.574;6.502;2023-07-29T01:25:29;5.05;;;4.13;;
76157;SDS011;64907;51.574;6.502;2023-07-29T01:27:54;5.33;;;4.83;;
76157;SDS011;64907;51.574;6.502;2023-07-29T01:30:20;4.88;;;4.65;;
76157;SDS011;64907;51.574;6.502;2023-07-29T01:33:03;4.82;;;4.53;;
76157;SDS011;64907;51.574;6.502;2023-07-29T01:37:55;4.68;;;4.25;;
76157;SDS011;64907;51.574;6.502;2023-07-29T01:40:22;5.55;;;5.25;;
76157;SDS011;64907;51.574;6.502;2023-07-29T01:42:48;6.00;;;5.60;;
76157;SDS011;64907;51.574;6.502;2023-07-29T01:45:13;5.82;;;5.43;;
76157;SDS011;64907;51.574;6.502;2023-07-29T01:47:39;5.20;;;4.97;;
76157;SDS011;64907;51.574;6.502;2023-07-29T01:52:34;7.60;;;5.68;;
76157;SDS011;64907;51.574;6.502;2023-07-29T01:55:00;5.55;;;5.22;;
76157;SDS011;64907;51.574;6.502;2023-07-29T01:57:25;6.13;;;5.82;;
76157;SDS011;64907;51.574;6.502;2023-07-29T01:59:50;5.90;;;5.45;;
76157;SDS011;64907;51.574;6.502;2023-07-29T02:05:00;6.25;;;5.88;;
76157;SDS011;64907;51.574;6.502;2023-07-29T02:07:25;5.47;;;5.13;;
76157;SDS011;64907;51.574;6.502;2023-07-29T02:12:21;5.30;;;4.97;;
76157;SDS011;64907;51.574;6.502;2023-07-29T02:14:48;6.03;;;5.60;;
76157;SDS011;64907;51.574;6.502;2023-07-29T02:17:13;5.82;;;5.53;;
76157;SDS011;64907;51.574;6.502;2023-07-29T02:19:38;5.70;;;5.28;;
76157;SDS011;64907;51.574;6.502;2023-07-29T02:22:03;6.50;;;5.90;;
76157;SDS011;64907;51.574;6.502;2023-07-29T02:24:28;7.05;;;6.57;;
76157;SDS011;64907;51.574;6.502;2023-07-29T02:26:53;7.03;;;6.50;;
76157;SDS011;64907;51.574;6.502;2023-07-29T02:29:19;6.68;;;6.18;;
76157;SDS011;64907;51.574;6.502;2023-07-29T02:31:50;6.60;;;6.20;;
76157;SDS011;64907;51.574;6.502;2023-07-29T02:34:15;7.00;;;6.57;;
76157;SDS011;64907;51.574;6.502;2023-07-29T02:36:41;6.30;;;5.83;;
76157;SDS011;64907;51.574;6.502;2023-07-29T02:39:06;7.60;;;6.72;;
76157;SDS011;64907;51.574;6.502;2023-07-29T02:41:31;7.45;;;6.97;;
76157;SDS011;64907;51.574;6.502;2023-07-29T02:43:56;6.45;;;6.15;;
76157;SDS011;64907;51.574;6.502;2023-07-29T02:46:21;7.03;;;6.53;;
76157;SDS011;64907;51.574;6.502;2023-07-29T02:48:47;9.00;;;7.22;;
76157;SDS011;64907;51.574;6.502;2023-07-29T02:51:12;7.90;;;7.20;;
76157;SDS011;64907;51.574;6.502;2023-07-29T02:53:37;8.20;;;7.50;;
76157;SDS011;64907;51.574;6.502;2023-07-29T02:56:03;7.05;;;6.60;;
76157;SDS011;64907;51.574;6.502;2023-07-29T03:01:02;6.75;;;6.13;;
76157;SDS011;64907;51.574;6.502;2023-07-29T03:03:27;7.47;;;6.88;;
76157;SDS011;64907;51.574;6.502;2023-07-29T03:06:03;7.80;;;7.10;;
76157;SDS011;64907;51.574;6.502;2023-07-29T03:08:28;8.60;;;7.93;;
76157;SDS011;64907;51.574;6.502;2023-07-29T03:10:53;9.75;;;7.85;;
76157;SDS011;64907;51.574;6.502;2023-07-29T03:13:19;8.15;;;7.55;;
76157;SDS011;64907;51.574;6.502;2023-07-29T03:15:44;9.32;;;8.55;;
76157;SDS011;64907;51.574;6.502;2023-07-29T03:18:09;8.38;;;7.65;;
76157;SDS011;64907;51.574;6.502;2023-07-29T03:20:34;8.15;;;7.43;;
76157;SDS011;64907;51.574;6.502;2023-07-29T03:25:48;8.15;;;7.55;;
76157;SDS011;64907;51.574;6.502;2023-07-29T03:28:13;8.35;;;7.50;;
76157;SDS011;64907;51.574;6.502;2023-07-29T03:30:38;6.97;;;6.38;;
76157;SDS011;64907;51.574;6.502;2023-07-29T03:33:04;7.15;;;6.65;;
76157;SDS011;64907;51.574;6.502;2023-07-29T03:35:30;7.07;;;6.50;;
76157;SDS011;64907;51.574;6.502;2023-07-29T03:37:55;6.40;;;5.67;;
76157;SDS011;64907;51.574;6.502;2023-07-29T03:40:21;6.43;;;5.90;;
76157;SDS011;64907;51.574;6.502;2023-07-29T03:42:46;6.53;;;5.60;;
76157;SDS011;64907;51.574;6.502;2023-07-29T03:45:11;7.10;;;5.90;;
76157;SDS011;64907;51.574;6.502;2023-07-29T03:47:36;6.90;;;6.27;;
76157;SDS011;64907;51.574;6.502;2023-07-29T03:50:02;7.75;;;5.65;;
76157;SDS011;64907;51.574;6.502;2023-07-29T03:52:27;7.25;;;6.55;;
76157;SDS011;64907;51.574;6.502;2023-07-29T03:54:52;6.27;;;5.60;;
76157;SDS011;64907;51.574;6.502;2023-07-29T03:57:17;6.30;;;5.80;;
76157;SDS011;64907;51.574;6.502;2023-07-29T03:59:43;7.43;;;6.70;;
76157;SDS011;64907;51.574;6.502;2023-07-29T04:02:08;6.97;;;6.38;;
76157;SDS011;64907;51.574;6.502;2023-07-29T04:04:34;6.15;;;5.80;;
76157;SDS011;64907;51.574;6.502;2023-07-29T04:07:00;6.63;;;6.13;;
76157;SDS011;64907;51.574;6.502;2023-07-29T04:09:25;5.93;;;5.43;;
76157;SDS011;64907;51.574;6.502;2023-07-29T04:11:51;8.67;;;6.33;;
76157;SDS011;64907;51.574;6.502;2023-07-29T04:14:16;5.72;;;5.22;;
76157;SDS011;64907;51.574;6.502;2023-07-29T04:16:41;6.90;;;5.95;;
76157;SDS011;64907;51.574;6.502;2023-07-29T04:19:07;5.27;;;4.87;;
76157;SDS011;64907;51.574;6.502;2023-07-29T04:21:32;5.20;;;4.90;;
76157;SDS011;64907;51.574;6.502;2023-07-29T04:23:58;5.43;;;5.03;;
76157;SDS011;64907;51.574;6.502;2023-07-29T04:26:23;5.80;;;5.30;;
76157;SDS011;64907;51.574;6.502;2023-07-29T04:28:48;8.77;;;5.55;;
76157;SDS011;64907;51.574;6.502;2023-07-29T04:31:13;5.30;;;4.57;;
76157;SDS011;64907;51.574;6.502;2023-07-29T04:33:38;5.00;;;4.60;;
76157;SDS011;64907;51.574;6.502;2023-07-29T04:36:04;5.00;;;4.70;;
76157;SDS011;64907;51.574;6.502;2023-07-29T04:38:32;5.57;;;5.05;;
76157;SDS011;64907;51.574;6.502;2023-07-29T04:40:58;5.70;;;5.20;;
76157;SDS011;64907;51.574;6.502;2023-07-29T04:43:26;5.13;;;4.65;;
76157;SDS011;64907;51.574;6.502;2023-07-29T04:45:51;5.00;;;4.50;;
76157;SDS011;64907;51.574;6.502;2023-07-29T04:48:17;6.60;;;4.40;;
76157;SDS011;64907;51.574;6.502;2023-07-29T04:50:42;4.70;;;4.50;;
76157;SDS011;64907;51.574;6.502;2023-07-29T04:53:07;5.17;;;3.97;;
76157;SDS011;64907;51.574;6.502;2023-07-29T04:55:34;4.63;;;4.37;;
76157;SDS011;64907;51.574;6.502;2023-07-29T04:57:59;4.80;;;4.22;;
76157;SDS011;64907;51.574;6.502;2023-07-29T05:00:31;5.28;;;4.40;;
76157;SDS011;64907;51.574;6.502;2023-07-29T05:02:56;4.60;;;4.25;;
76157;SDS011;64907;51.574;6.502;2023-07-29T05:05:21;5.30;;;4.00;;
76157;SDS011;64907;51.574;6.502;2023-07-29T05:07:46;4.07;;;3.77;;
76157;SDS011;64907;51.574;6.502;2023-07-29T05:10:11;4.07;;;3.77;;
76157;SDS011;64907;51.574;6.502;2023-07-29T05:12:46;5.80;;;4.00;;
76157;SDS011;64907;51.574;6.502;2023-07-29T05:15:11;4.78;;;3.97;;
76157;SDS011;64907;51.574;6.502;2023-07-29T05:17:36;3.90;;;3.60;;
76157;SDS011;64907;51.574;6.502;2023-07-29T05:20:01;3.93;;;3.73;;
76157;SDS011;64907;51.574;6.502;2023-07-29T05:22:27;4.78;;;4.20;;
76157;SDS011;64907;51.574;6.502;2023-07-29T05:24:52;6.83;;;4.20;;
76157;SDS011;64907;51.574;6.502;2023-07-29T05:27:17;4.77;;;4.20;;
76157;SDS011;64907;51.574;6.502;2023-07-29T05:29:43;4.77;;;4.47;;
76157;SDS011;64907;51.574;6.502;2023-07-29T05:32:08;5.03;;;4.33;;
76157;SDS011;64907;51.574;6.502;2023-07-29T05:34:33;5.22;;;4.78;;
76157;SDS011;64907;51.574;6.502;2023-07-29T05:36:58;4.80;;;4.07;;
76157;SDS011;64907;51.574;6.502;2023-07-29T05:39:24;4.47;;;4.17;;
76157;SDS011;64907;51.574;6.502;2023-07-29T05:44:20;9.48;;;4.95;;
76157;SDS011;64907;51.574;6.502;2023-07-29T05:46:45;4.70;;;4.23;;
76157;SDS011;64907;51.574;6.502;2023-07-29T05:51:42;4.93;;;4.63;;
76157;SDS011;64907;51.574;6.502;2023-07-29T05:54:17;4.60;;;4.30;;
76157;SDS011;64907;51.574;6.502;2023-07-29T05:59:25;4.57;;;4.28;;
76157;SDS011;64907;51.574;6.502;2023-07-29T06:01:50;4.85;;;4.43;;
76157;SDS011;64907;51.574;6.502;2023-07-29T06:04:15;4.10;;;3.90;;
76157;SDS011;64907;51.574;6.502;2023-07-29T06:06:40;4.23;;;3.93;;
76157;SDS011;64907;51.574;6.502;2023-07-29T06:09:07;4.70;;;4.30;;
76157;SDS011;64907;51.574;6.502;2023-07-29T06:11:32;3.70;;;3.50;;
76157;SDS011;64907;51.574;6.502;2023-07-29T06:13:57;5.38;;;3.53;;
76157;SDS011;64907;51.574;6.502;2023-07-29T06:16:22;5.50;;;3.83;;
76157;SDS011;64907;51.574;6.502;2023-07-29T06:18:50;3.80;;;3.60;;
76157;SDS011;64907;51.574;6.502;2023-07-29T06:21:17;3.72;;;3.35;;
76157;SDS011;64907;51.574;6.502;2023-07-29T06:23:44;3.50;;;3.33;;
76157;SDS011;64907;51.574;6.502;2023-07-29T06:26:10;3.58;;;3.10;;
76157;SDS011;64907;51.574;6.502;2023-07-29T06:28:35;3.65;;;3.40;;
76157;SDS011;64907;51.574;6.502;2023-07-29T06:31:00;3.80;;;3.40;;
76157;SDS011;64907;51.574;6.502;2023-07-29T06:33:26;5.03;;;3.38;;
76157;SDS011;64907;51.574;6.502;2023-07-29T06:35:51;3.25;;;3.00;;
76157;SDS011;64907;51.574;6.502;2023-07-29T06:38:17;3.40;;;3.20;;
76157;SDS011;64907;51.574;6.502;2023-07-29T06:40:46;4.05;;;3.55;;
76157;SDS011;64907;51.574;6.502;2023-07-29T06:43:11;4.63;;;4.22;;
76157;SDS011;64907;51.574;6.502;2023-07-29T06:45:36;3.07;;;2.80;;
76157;SDS011;64907;51.574;6.502;2023-07-29T06:48:02;4.20;;;3.22;;
76157;SDS011;64907;51.574;6.502;2023-07-29T06:50:27;3.65;;;3.35;;
76157;SDS011;64907;51.574;6.502;2023-07-29T06:52:52;3.63;;;3.33;;
76157;SDS011;64907;51.574;6.502;2023-07-29T06:55:19;3.63;;;3.33;;
76157;SDS011;64907;51.574;6.502;2023-07-29T06:57:44;4.93;;;3.30;;
76157;SDS011;64907;51.574;6.502;2023-07-29T07:00:09;3.13;;;2.83;;
76157;SDS011;64907;51.574;6.502;2023-07-29T07:02:34;2.88;;;2.75;;
76157;SDS011;64907;51.574;6.502;2023-07-29T07:07:30;2.67;;;2.58;;
76157;SDS011;64907;51.574;6.502;2023-07-29T07:12:28;2.30;;;2.20;;
76157;SDS011;64907;51.574;6.502;2023-07-29T07:14:53;2.65;;;2.47;;
76157;SDS011;64907;51.574;6.502;2023-07-29T07:17:18;2.23;;;2.13;;
76157;SDS011;64907;51.574;6.502;2023-07-29T07:19:43;2.30;;;2.20;;
76157;SDS011;64907;51.574;6.502;2023-07-29T07:22:09;3.05;;;2.08;;
76157;SDS011;64907;51.574;6.502;2023-07-29T07:24:35;2.05;;;1.95;;
76157;SDS011;64907;51.574;6.502;2023-07-29T07:27:00;3.00;;;2.13;;
76157;SDS011;64907;51.574;6.502;2023-07-29T07:31:56;2.35;;;2.25;;
76157;SDS011;64907;51.574;6.502;2023-07-29T07:34:24;4.05;;;2.55;;
76157;SDS011;64907;51.574;6.502;2023-07-29T07:36:50;6.30;;;3.25;;
76157;SDS011;64907;51.574;6.502;2023-07-29T07:42:02;2.70;;;2.50;;
76157;SDS011;64907;51.574;6.502;2023-07-29T07:44:28;2.42;;;2.33;;
76157;SDS011;64907;51.574;6.502;2023-07-29T07:46:55;2.30;;;2.20;;
76157;SDS011;64907;51.574;6.502;2023-07-29T07:49:20;3.10;;;2.50;;
76157;SDS011;64907;51.574;6.502;2023-07-29T07:51:45;2.73;;;2.53;;
76157;SDS011;64907;51.574;6.502;2023-07-29T07:54:10;2.47;;;2.37;;
76157;SDS011;64907;51.574;6.502;2023-07-29T07:56:35;3.77;;;2.13;;
76157;SDS011;64907;51.574;6.502;2023-07-29T07:59:01;2.97;;;2.08;;
76157;SDS011;64907;51.574;6.502;2023-07-29T08:01:26;3.37;;;2.30;;
76157;SDS011;64907;51.574;6.502;2023-07-29T08:03:52;2.13;;;2.08;;
76157;SDS011;64907;51.574;6.502;2023-07-29T08:06:17;2.03;;;1.90;;
76157;SDS011;64907;51.574;6.502;2023-07-29T08:08:42;2.83;;;2.07;;
76157;SDS011;64907;51.574;6.502;2023-07-29T08:11:08;1.73;;;1.63;;
76157;SDS011;64907;51.574;6.502;2023-07-29T08:13:45;1.77;;;1.73;;
76157;SDS011;64907;51.574;6.502;2023-07-29T08:16:12;2.28;;;2.08;;
76157;SDS011;64907;51.574;6.502;2023-07-29T08:18:37;1.85;;;1.85;;
76157;SDS011;64907;51.574;6.502;2023-07-29T08:21:05;2.78;;;1.98;;
76157;SDS011;64907;51.574;6.502;2023-07-29T08:23:31;1.60;;;1.60;;
76157;SDS011;64907;51.574;6.502;2023-07-29T08:26:04;1.88;;;1.88;;
76157;SDS011;64907;51.574;6.502;2023-07-29T08:31:02;2.15;;;2.05;;
76157;SDS011;64907;51.574;6.502;2023-07-29T08:33:28;2.15;;;1.55;;
76157;SDS011;64907;51.574;6.502;2023-07-29T08:35:56;3.30;;;2.17;;
76157;SDS011;64907;51.574;6.502;2023-07-29T08:38:23;2.20;;;2.10;;
76157;SDS011;64907;51.574;6.502;2023-07-29T08:43:46;1.67;;;1.58;;
76157;SDS011;64907;51.574;6.502;2023-07-29T08:46:13;1.58;;;1.58;;
76157;SDS011;64907;51.574;6.502;2023-07-29T08:48:41;2.00;;;1.85;;
76157;SDS011;64907;51.574;6.502;2023-07-29T08:51:08;2.22;;;2.13;;
76157;SDS011;64907;51.574;6.502;2023-07-29T08:53:33;2.00;;;1.90;;
76157;SDS011;64907;51.574;6.502;2023-07-29T08:56:00;3.42;;;1.83;;
76157;SDS011;64907;51.574;6.502;2023-07-29T08:58:26;2.78;;;1.80;;
76157;SDS011;64907;51.574;6.502;2023-07-29T09:01:07;1.90;;;1.77;;
76157;SDS011;64907;51.574;6.502;2023-07-29T09:03:40;4.13;;;1.83;;
76157;SDS011;64907;51.574;6.502;2023-07-29T09:06:06;1.63;;;1.50;;
76157;SDS011;64907;51.574;6.502;2023-07-29T09:08:32;1.95;;;1.85;;
76157;SDS011;64907;51.574;6.502;2023-07-29T09:10:57;1.63;;;1.55;;
76157;SDS011;64907;51.574;6.502;2023-07-29T09:13:23;3.15;;;1.70;;
76157;SDS011;64907;51.574;6.502;2023-07-29T09:15:49;2.20;;;1.33;;
76157;SDS011;64907;51.574;6.502;2023-07-29T09:18:20;1.70;;;1.60;;
76157;SDS011;64907;51.574;6.502;2023-07-29T09:20:53;2.35;;;1.60;;
76157;SDS011;64907;51.574;6.502;2023-07-29T09:23:20;2.10;;;2.00;;
76157;SDS011;64907;51.574;6.502;2023-07-29T09:25:48;1.85;;;1.75;;
76157;SDS011;64907;51.574;6.502;2023-07-29T09:28:14;2.08;;;1.73;;
76157;SDS011;64907;51.574;6.502;2023-07-29T09:30:40;2.00;;;1.90;;
76157;SDS011;64907;51.574;6.502;2023-07-29T09:33:05;1.95;;;1.95;;
76157;SDS011;64907;51.574;6.502;2023-07-29T09:35:33;2.17;;;2.08;;
76157;SDS011;64907;51.574;6.502;2023-07-29T09:38:00;1.80;;;1.70;;
76157;SDS011;64907;51.574;6.502;2023-07-29T09:40:25;1.90;;;1.80;;
76157;SDS011;64907;51.574;6.502;2023-07-29T09:42:51;1.98;;;1.88;;
76157;SDS011;64907;51.574;6.502;2023-07-29T09:45:24;2.15;;;1.75;;
76157;SDS011;64907;51.574;6.502;2023-07-29T09:50:19;1.38;;;1.38;;
76157;SDS011;64907;51.574;6.502;2023-07-29T09:52:44;1.55;;;1.52;;
76157;SDS011;64907;51.574;6.502;2023-07-29T09:55:12;1.63;;;1.52;;
76157;SDS011;64907;51.574;6.502;2023-07-29T10:00:13;1.73;;;1.55;;
76157;SDS011;64907;51.574;6.502;2023-07-29T10:02:39;1.30;;;1.30;;
76157;SDS011;64907;51.574;6.502;2023-07-29T10:05:13;2.03;;;1.40;;
76157;SDS011;64907;51.574;6.502;2023-07-29T10:07:40;1.48;;;1.38;;
76157;SDS011;64907;51.574;6.502;2023-07-29T10:10:06;1.42;;;1.33;;
76157;SDS011;64907;51.574;6.502;2023-07-29T10:12:31;2.00;;;0.88;;
76157;SDS011;64907;51.574;6.502;2023-07-29T10:15:01;1.27;;;1.20;;
76157;SDS011;64907;51.574;6.502;2023-07-29T10:17:26;1.45;;;1.35;;
76157;SDS011;64907;51.574;6.502;2023-07-29T10:20:03;1.15;;;1.15;;
76157;SDS011;64907;51.574;6.502;2023-07-29T10:22:28;2.13;;;1.42;;
76157;SDS011;64907;51.574;6.502;2023-07-29T10:24:59;1.27;;;1.27;;
76157;SDS011;64907;51.574;6.502;2023-07-29T10:30:13;1.20;;;1.20;;
76157;SDS011;64907;51.574;6.502;2023-07-29T10:32:44;2.50;;;1.58;;
76157;SDS011;64907;51.574;6.502;2023-07-29T10:35:10;1.20;;;1.10;;
76157;SDS011;64907;51.574;6.502;2023-07-29T10:37:35;2.15;;;1.75;;
76157;SDS011;64907;51.574;6.502;2023-07-29T10:40:01;1.25;;;1.17;;
76157;SDS011;64907;51.574;6.502;2023-07-29T10:42:30;1.13;;;1.13;;
76157;SDS011;64907;51.574;6.502;2023-07-29T10:44:55;1.27;;;1.27;;
76157;SDS011;64907;51.574;6.502;2023-07-29T10:47:24;1.80;;;1.10;;
76157;SDS011;64907;51.574;6.502;2023-07-29T10:49:51;1.00;;;1.00;;
76157;SDS011;64907;51.574;6.502;2023-07-29T10:52:17;1.10;;;1.02;;
76157;SDS011;64907;51.574;6.502;2023-07-29T10:54:53;1.77;;;1.15;;
76157;SDS011;64907;51.574;6.502;2023-07-29T10:59:56;1.08;;;1.08;;
76157;SDS011;64907;51.574;6.502;2023-07-29T11:02:22;2.95;;;1.30;;
76157;SDS011;64907;51.574;6.502;2023-07-29T11:04:52;1.02;;;1.02;;
76157;SDS011;64907;51.574;6.502;2023-07-29T11:07:18;1.40;;;1.40;;
76157;SDS011;64907;51.574;6.502;2023-07-29T11:15:23;1.55;;;1.55;;
76157;SDS011;64907;51.574;6.502;2023-07-29T11:17:59;1.73;;;1.63;;
76157;SDS011;64907;51.574;6.502;2023-07-29T11:23:15;1.92;;;1.15;;
76157;SDS011;64907;51.574;6.502;2023-07-29T11:25:41;1.65;;;1.65;;
76157;SDS011;64907;51.574;6.502;2023-07-29T11:28:07;1.23;;;1.23;;
76157;SDS011;64907;51.574;6.502;2023-07-29T11:30:33;1.70;;;1.65;;
76157;SDS011;64907;51.574;6.502;2023-07-29T11:32:58;1.45;;;1.45;;
76157;SDS011;64907;51.574;6.502;2023-07-29T11:35:24;1.42;;;1.42;;
76157;SDS011;64907;51.574;6.502;2023-07-29T11:37:50;1.58;;;1.58;;
76157;SDS011;64907;51.574;6.502;2023-07-29T11:42:46;1.55;;;1.55;;
76157;SDS011;64907;51.574;6.502;2023-07-29T11:45:22;1.90;;;1.50;;
76157;SDS011;64907;51.574;6.502;2023-07-29T11:47:48;1.40;;;1.40;;
76157;SDS011;64907;51.574;6.502;2023-07-29T11:55:25;1.55;;;1.50;;
76157;SDS011;64907;51.574;6.502;2023-07-29T11:57:51;1.63;;;1.63;;
76157;SDS011;64907;51.574;6.502;2023-07-29T12:00:16;1.55;;;1.52;;
76157;SDS011;64907;51.574;6.502;2023-07-29T12:02:43;6.88;;;1.80;;
76157;SDS011;64907;51.574;6.502;2023-07-29T12:05:09;1.70;;;1.70;;
76157;SDS011;64907;51.574;6.502;2023-07-29T12:07:35;1.70;;;1.70;;
76157;SDS011;64907;51.574;6.502;2023-07-29T12:10:01;1.90;;;1.80;;
76157;SDS011;64907;51.574;6.502;2023-07-29T12:13:02;1.70;;;1.58;;
76157;SDS011;64907;51.574;6.502;2023-07-29T12:15:24;2.15;;;2.05;;
76157;SDS011;64907;51.574;6.502;2023-07-29T12:17:52;2.65;;;2.45;;
76157;SDS011;64907;51.574;6.502;2023-07-29T12:20:17;1.88;;;1.77;;
76157;SDS011;64907;51.574;6.502;2023-07-29T12:22:50;3.95;;;1.80;;
76157;SDS011;64907;51.574;6.502;2023-07-29T12:27:45;2.67;;;2.58;;
76157;SDS011;64907;51.574;6.502;2023-07-29T12:30:19;2.13;;;2.03;;
76157;SDS011;64907;51.574;6.502;2023-07-29T12:32:46;2.38;;;2.22;;
76157;SDS011;64907;51.574;6.502;2023-07-29T12:35:12;2.10;;;2.00;;
76157;SDS011;64907;51.574;6.502;2023-07-29T12:37:40;2.00;;;1.90;;
76157;SDS011;64907;51.574;6.502;2023-07-29T12:40:22;1.90;;;1.88;;
76157;SDS011;64907;51.574;6.502;2023-07-29T12:50:54;2.00;;;2.00;;
76157;SDS011;64907;51.574;6.502;2023-07-29T12:53:19;2.00;;;1.90;;
76157;SDS011;64907;51.574;6.502;2023-07-29T12:55:46;2.40;;;1.95;;
76157;SDS011;64907;51.574;6.502;2023-07-29T13:00:41;1.83;;;1.80;;
76157;SDS011;64907;51.574;6.502;2023-07-29T13:03:06;2.08;;;1.60;;
76157;SDS011;64907;51.574;6.502;2023-07-29T13:05:31;2.00;;;1.90;;
76157;SDS011;64907;51.574;6.502;2023-07-29T13:10:26;1.83;;;1.73;;
76157;SDS011;64907;51.574;6.502;2023-07-29T13:12:51;2.03;;;1.93;;
76157;SDS011;64907;51.574;6.502;2023-07-29T13:15:16;2.22;;;1.85;;
76157;SDS011;64907;51.574;6.502;2023-07-29T13:17:41;2.20;;;2.10;;
76157;SDS011;64907;51.574;6.502;2023-07-29T13:20:06;5.25;;;1.75;;
76157;SDS011;64907;51.574;6.502;2023-07-29T13:22:33;10.82;;;1.88;;
76157;SDS011;64907;51.574;6.502;2023-07-29T13:24:58;5.13;;;2.45;;
76157;SDS011;64907;51.574;6.502;2023-07-29T13:32:21;1.55;;;1.40;;
76157;SDS011;64907;51.574;6.502;2023-07-29T13:34:48;1.95;;;1.30;;
76157;SDS011;64907;51.574;6.502;2023-07-29T13:39:48;8.00;;;2.53;;
76157;SDS011;64907;51.574;6.502;2023-07-29T13:44:44;6.20;;;2.28;;
76157;SDS011;64907;51.574;6.502;2023-07-29T13:49:52;4.22;;;2.50;;
76157;SDS011;64907;51.574;6.502;2023-07-29T13:54:48;2.90;;;2.50;;
76157;SDS011;64907;51.574;6.502;2023-07-29T14:00:02;4.93;;;3.60;;
76157;SDS011;64907;51.574;6.502;2023-07-29T14:05:27;4.18;;;3.28;;
76157;SDS011;64907;51.574;6.502;2023-07-29T14:07:53;3.72;;;3.35;;
76157;SDS011;64907;51.574;6.502;2023-07-29T14:10:24;4.97;;;3.75;;
76157;SDS011;64907;51.574;6.502;2023-07-29T14:12:50;3.33;;;3.05;;
76157;SDS011;64907;51.574;6.502;2023-07-29T14:15:16;2.75;;;2.25;;
76157;SDS011;64907;51.574;6.502;2023-07-29T14:17:42;1.98;;;1.98;;
76157;SDS011;64907;51.574;6.502;2023-07-29T14:20:09;2.33;;;2.10;;
76157;SDS011;64907;51.574;6.502;2023-07-29T14:25:05;1.60;;;1.60;;
76157;SDS011;64907;51.574;6.502;2023-07-29T14:27:30;1.92;;;1.58;;
76157;SDS011;64907;51.574;6.502;2023-07-29T14:29:56;2.15;;;1.55;;
76157;SDS011;64907;51.574;6.502;2023-07-29T14:32:24;2.10;;;1.80;;
76157;SDS011;64907;51.574;6.502;2023-07-29T14:34:56;1.70;;;1.60;;
76157;SDS011;64907;51.574;6.502;2023-07-29T14:37:24;1.58;;;1.58;;
76157;SDS011;64907;51.574;6.502;2023-07-29T14:42:21;2.15;;;2.05;;
76157;SDS011;64907;51.574;6.502;2023-07-29T14:44:47;2.17;;;2.08;;
76157;SDS011;64907;51.574;6.502;2023-07-29T14:47:15;2.05;;;1.95;;
76157;SDS011;64907;51.574;6.502;2023-07-29T14:49:50;2.70;;;2.15;;
76157;SDS011;64907;51.574;6.502;2023-07-29T14:52:16;2.20;;;2.10;;
76157;SDS011;64907;51.574;6.502;2023-07-29T14:54:43;2.00;;;1.90;;
76157;SDS011;64907;51.574;6.502;2023-07-29T14:59:45;2.65;;;2.45;;
76157;SDS011;64907;51.574;6.502;2023-07-29T15:02:10;2.53;;;2.40;;
76157;SDS011;64907;51.574;6.502;2023-07-29T15:04:43;12.35;;;3.20;;
76157;SDS011;64907;51.574;6.502;2023-07-29T15:09:36;2.85;;;2.65;;
76157;SDS011;64907;51.574;6.502;2023-07-29T15:12:02;2.58;;;2.47;;
76157;SDS011;64907;51.574;6.502;2023-07-29T15:14:27;3.10;;;3.00;;
76157;SDS011;64907;51.574;6.502;2023-07-29T15:16:59;3.47;;;2.75;;
76157;SDS011;64907;51.574;6.502;2023-07-29T15:19:26;3.53;;;3.22;;
76157;SDS011;64907;51.574;6.502;2023-07-29T15:22:04;3.35;;;3.15;;
76157;SDS011;64907;51.574;6.502;2023-07-29T15:24:31;4.20;;;3.90;;
76157;SDS011;64907;51.574;6.502;2023-07-29T15:31:58;4.20;;;3.80;;
76157;SDS011;64907;51.574;6.502;2023-07-29T15:34:25;2.90;;;2.70;;
76157;SDS011;64907;51.574;6.502;2023-07-29T15:36:51;3.13;;;2.92;;
76157;SDS011;64907;51.574;6.502;2023-07-29T15:39:16;3.13;;;3.03;;
76157;SDS011;64907;51.574;6.502;2023-07-29T15:41:42;3.00;;;2.80;;
76157;SDS011;64907;51.574;6.502;2023-07-29T15:44:09;2.78;;;2.67;;
76157;SDS011;64907;51.574;6.502;2023-07-29T15:46:37;3.10;;;2.90;;
76157;SDS011;64907;51.574;6.502;2023-07-29T15:49:03;2.88;;;2.67;;
76157;SDS011;64907;51.574;6.502;2023-07-29T15:51:30;2.65;;;2.38;;
76157;SDS011;64907;51.574;6.502;2023-07-29T15:56:31;3.30;;;1.90;;
76157;SDS011;64907;51.574;6.502;2023-07-29T16:01:31;1.63;;;1.52;;
76157;SDS011;64907;51.574;6.502;2023-07-29T16:06:41;1.50;;;1.50;;
76157;SDS011;64907;51.574;6.502;2023-07-29T16:09:09;1.70;;;1.67;;
76157;SDS011;64907;51.574;6.502;2023-07-29T16:14:03;1.65;;;1.55;;
76157;SDS011;64907;51.574;6.502;2023-07-29T16:16:29;1.57;;;1.40;;
76157;SDS011;64907;51.574;6.502;2023-07-29T16:18:54;1.60;;;1.50;;
76157;SDS011;64907;51.574;6.502;2023-07-29T16:21:20;1.50;;;1.50;;
76157;SDS011;64907;51.574;6.502;2023-07-29T16:23:45;1.48;;;1.48;;
76157;SDS011;64907;51.574;6.502;2023-07-29T16:26:19;2.45;;;1.73;;
76157;SDS011;64907;51.574;6.502;2023-07-29T16:31:14;1.67;;;1.60;;
76157;SDS011;64907;51.574;6.502;2023-07-29T16:33:48;7.18;;;1.50;;
76157;SDS011;64907;51.574;6.502;2023-07-29T16:36:14;1.75;;;1.67;;
76157;SDS011;64907;51.574;6.502;2023-07-29T16:38:40;4.57;;;1.90;;
76157;SDS011;64907;51.574;6.502;2023-07-29T16:41:07;2.00;;;1.90;;
76157;SDS011;64907;51.574;6.502;2023-07-29T16:43:32;2.17;;;1.65;;
76157;SDS011;64907;51.574;6.502;2023-07-29T16:45:59;1.77;;;1.67;;
76157;SDS011;64907;51.574;6.502;2023-07-29T16:48:24;2.80;;;2.22;;
76157;SDS011;64907;51.574;6.502;2023-07-29T16:50:50;1.50;;;1.50;;
76157;SDS011;64907;51.574;6.502;2023-07-29T16:53:15;2.00;;;1.90;;
76157;SDS011;64907;51.574;6.502;2023-07-29T16:55:41;2.27;;;1.70;;
76157;SDS011;64907;51.574;6.502;2023-07-29T16:58:06;1.98;;;1.88;;
76157;SDS011;64907;51.574;6.502;2023-07-29T17:00:31;2.43;;;1.90;;
76157;SDS011;64907;51.574;6.502;2023-07-29T17:02:56;1.90;;;1.90;;
76157;SDS011;64907;51.574;6.502;2023-07-29T17:05:22;1.80;;;1.80;;
76157;SDS011;64907;51.574;6.502;2023-07-29T17:07:47;1.90;;;1.80;;